Time;durP1;ratioP1;P1;durP2;ratioP2;P2;SDS_P1;SDS_P2;PMS_P1;PMS_P2;Temp;Humidity;BMP_temperature;BMP_pressure;BME280_temperature;BME280_humidity;BME280_pressure;Samples;Min_cycle;Max_cycle;Signal;HPM_P1;HPM_P2
2021/10/14 00:00:59;;;;;;;3.05;1.60;;;;;;;;;;5036010;28;20056;-53
2021/10/14 00:03:25;;;;;;;3.05;2.13;;;;;;;;;;5033902;28;20112;-53
2021/10/14 00:05:50;;;;;;;2.60;1.42;;;;;;;;;;5035163;28;20164;-53
2021/10/14 00:08:16;;;;;;;3.45;1.98;;;;;;;;;;5035616;28;20440;-53
2021/10/14 00:10:42;;;;;;;4.10;1.75;;;;;;;;;;5035100;28;20029;-53
2021/10/14 00:13:08;;;;;;;2.65;1.55;;;;;;;;;;5035525;28;20026;-53
2021/10/14 00:15:34;;;;;;;3.70;2.30;;;;;;;;;;5034532;28;20029;-53
2021/10/14 00:18:01;;;;;;;7.20;2.20;;;;;;;;;;5035233;28;20033;-53
2021/10/14 00:20:27;;;;;;;20.63;3.50;;;;;;;;;;5035035;28;20025;-52
2021/10/14 00:22:53;;;;;;;33.83;2.83;;;;;;;;;;5035033;28;20359;-52
2021/10/14 00:25:22;;;;;;;52.90;8.05;;;;;;;;;;5034489;28;20450;-53
2021/10/14 00:27:48;;;;;;;10.40;1.85;;;;;;;;;;5035122;28;20021;-53
2021/10/14 00:30:14;;;;;;;5.80;2.33;;;;;;;;;;5034736;28;20447;-53
2021/10/14 00:32:40;;;;;;;5.43;2.00;;;;;;;;;;5034700;28;20022;-53
2021/10/14 00:35:06;;;;;;;2.78;1.92;;;;;;;;;;5034025;28;20510;-53
2021/10/14 00:37:32;;;;;;;4.20;1.70;;;;;;;;;;5034745;28;20529;-53
2021/10/14 00:39:58;;;;;;;3.75;2.00;;;;;;;;;;5034947;28;20026;-53
2021/10/14 00:42:24;;;;;;;3.42;2.13;;;;;;;;;;5035030;28;20079;-53
2021/10/14 00:44:51;;;;;;;7.35;2.47;;;;;;;;;;5033999;28;20025;-53
2021/10/14 00:47:27;;;;;;;2.33;1.70;;;;;;;;;;5034351;28;20056;-53
2021/10/14 00:49:53;;;;;;;4.43;2.38;;;;;;;;;;5034590;28;20031;-53
2021/10/14 00:52:20;;;;;;;4.13;2.42;;;;;;;;;;5034526;28;20459;-53
2021/10/14 00:54:47;;;;;;;7.68;3.17;;;;;;;;;;5034276;28;20029;-53
2021/10/14 00:57:13;;;;;;;5.47;2.25;;;;;;;;;;5034145;28;20530;-53
2021/10/14 00:59:40;;;;;;;4.75;2.88;;;;;;;;;;5034078;28;20017;-53
2021/10/14 01:02:06;;;;;;;3.92;2.55;;;;;;;;;;5033673;28;20029;-52
2021/10/14 01:04:32;;;;;;;6.68;2.88;;;;;;;;;;5033587;28;20112;-53
2021/10/14 01:06:59;;;;;;;9.52;2.75;;;;;;;;;;5034383;28;20116;-53
2021/10/14 01:09:25;;;;;;;7.97;3.17;;;;;;;;;;5034522;28;20021;-53
2021/10/14 01:11:51;;;;;;;5.80;3.13;;;;;;;;;;5033714;28;20460;-53
2021/10/14 01:14:17;;;;;;;7.97;2.65;;;;;;;;;;5033961;28;20087;-53
2021/10/14 01:16:45;;;;;;;5.80;2.58;;;;;;;;;;5034175;28;20037;-54
2021/10/14 01:19:11;;;;;;;7.63;2.75;;;;;;;;;;5034410;28;20017;-53
2021/10/14 01:21:38;;;;;;;8.02;3.00;;;;;;;;;;5033732;28;20351;-53
2021/10/14 01:24:04;;;;;;;9.57;3.05;;;;;;;;;;5033120;28;20037;-53
2021/10/14 01:26:30;;;;;;;10.82;3.65;;;;;;;;;;5033869;28;20029;-53
2021/10/14 01:28:57;;;;;;;6.68;2.80;;;;;;;;;;5034074;28;20032;-53
2021/10/14 01:31:23;;;;;;;5.50;2.63;;;;;;;;;;5033795;28;20514;-53
2021/10/14 01:33:49;;;;;;;5.03;2.95;;;;;;;;;;5033263;28;20025;-52
2021/10/14 01:36:15;;;;;;;4.70;2.72;;;;;;;;;;5033257;28;20040;-53
2021/10/14 01:38:41;;;;;;;3.47;2.33;;;;;;;;;;5033656;28;20025;-53
2021/10/14 01:41:07;;;;;;;3.50;2.33;;;;;;;;;;5033799;28;20129;-53
2021/10/14 01:43:34;;;;;;;4.65;2.17;;;;;;;;;;5033004;28;20034;-53
2021/10/14 01:46:00;;;;;;;3.80;2.03;;;;;;;;;;5032484;28;20466;-53
2021/10/14 01:48:27;;;;;;;6.97;2.70;;;;;;;;;;5033333;28;20440;-52
2021/10/14 01:50:54;;;;;;;7.25;2.70;;;;;;;;;;5033344;28;20100;-53
2021/10/14 01:53:20;;;;;;;3.03;2.08;;;;;;;;;;5033564;28;20025;-53
2021/10/14 01:55:46;;;;;;;4.22;2.70;;;;;;;;;;5032659;28;20032;-53
2021/10/14 01:58:12;;;;;;;5.25;2.75;;;;;;;;;;5033766;28;20022;-53
2021/10/14 02:00:38;;;;;;;5.28;2.47;;;;;;;;;;5033292;28;20052;-53
2021/10/14 02:03:04;;;;;;;3.88;2.58;;;;;;;;;;5032520;28;20052;-53
2021/10/14 02:05:30;;;;;;;5.07;2.47;;;;;;;;;;5025761;28;20049;-53
2021/10/14 02:07:56;;;;;;;6.03;2.67;;;;;;;;;;5032795;28;20021;-53
2021/10/14 02:10:22;;;;;;;5.18;2.20;;;;;;;;;;5032905;28;20049;-53
2021/10/14 02:12:48;;;;;;;2.50;2.03;;;;;;;;;;5033032;28;20080;-53
2021/10/14 02:15:15;;;;;;;3.50;2.05;;;;;;;;;;5032076;28;20524;-53
2021/10/14 02:17:41;;;;;;;5.50;2.30;;;;;;;;;;5033196;28;20363;-53
2021/10/14 02:20:08;;;;;;;7.38;2.65;;;;;;;;;;5032809;28;20049;-53
2021/10/14 02:22:34;;;;;;;5.20;2.70;;;;;;;;;;5033078;28;20116;-53
2021/10/14 02:25:00;;;;;;;4.80;2.70;;;;;;;;;;5032174;28;20032;-53
2021/10/14 02:27:26;;;;;;;3.90;2.80;;;;;;;;;;5032938;28;20025;-53
2021/10/14 02:29:52;;;;;;;8.35;2.65;;;;;;;;;;5032862;28;20374;-53
2021/10/14 02:32:18;;;;;;;3.58;2.20;;;;;;;;;;5033130;28;20034;-53
2021/10/14 02:34:44;;;;;;;4.90;2.35;;;;;;;;;;5032179;28;20029;-52
2021/10/14 02:37:10;;;;;;;6.78;3.20;;;;;;;;;;5032817;28;20042;-53
2021/10/14 02:39:36;;;;;;;4.85;2.75;;;;;;;;;;5033316;28;20022;-53
2021/10/14 02:42:02;;;;;;;6.70;3.00;;;;;;;;;;5032660;28;20030;-53
2021/10/14 02:44:28;;;;;;;4.38;2.72;;;;;;;;;;5032352;28;20021;-53
2021/10/14 02:46:54;;;;;;;7.00;3.10;;;;;;;;;;5037825;28;20125;-53
2021/10/14 02:49:21;;;;;;;4.30;2.42;;;;;;;;;;5051737;28;20359;-53
2021/10/14 02:51:47;;;;;;;4.93;2.67;;;;;;;;;;5052274;28;20128;-53
2021/10/14 02:54:13;;;;;;;6.60;2.80;;;;;;;;;;5045406;28;20414;-53
2021/10/14 02:56:39;;;;;;;7.00;2.90;;;;;;;;;;5032409;28;20037;-52
2021/10/14 02:59:05;;;;;;;6.53;2.67;;;;;;;;;;5033096;28;20026;-52
2021/10/14 03:01:31;;;;;;;3.60;2.53;;;;;;;;;;5031499;28;20049;-53
2021/10/14 03:03:57;;;;;;;5.10;3.05;;;;;;;;;;5031881;28;20018;-53
2021/10/14 03:06:23;;;;;;;6.03;2.72;;;;;;;;;;5032760;28;20041;-53
2021/10/14 03:08:49;;;;;;;4.22;2.38;;;;;;;;;;5032726;28;20025;-53
2021/10/14 03:11:15;;;;;;;5.00;2.60;;;;;;;;;;5032881;28;20037;-53
2021/10/14 03:13:41;;;;;;;5.07;2.33;;;;;;;;;;5031465;28;20351;-53
2021/10/14 03:16:07;;;;;;;5.60;2.08;;;;;;;;;;5032317;28;20025;-53
2021/10/14 03:18:33;;;;;;;7.28;2.50;;;;;;;;;;5032784;28;20028;-53
2021/10/14 03:21:00;;;;;;;7.55;3.03;;;;;;;;;;5034140;28;20029;-53
2021/10/14 03:23:26;;;;;;;7.60;3.20;;;;;;;;;;5036011;28;20021;-53
2021/10/14 03:25:52;;;;;;;6.25;2.92;;;;;;;;;;5036012;28;20029;-53
2021/10/14 03:28:18;;;;;;;4.82;2.85;;;;;;;;;;5036176;28;20386;-53
2021/10/14 03:30:44;;;;;;;7.80;3.00;;;;;;;;;;5035924;28;20473;-53
2021/10/14 03:33:10;;;;;;;5.03;2.55;;;;;;;;;;5036481;28;20079;-53
2021/10/14 03:35:36;;;;;;;9.63;2.50;;;;;;;;;;5035342;28;20104;-53
2021/10/14 03:38:02;;;;;;;4.30;2.35;;;;;;;;;;5036075;28;20120;-53
2021/10/14 03:40:29;;;;;;;6.30;2.58;;;;;;;;;;5036013;28;20054;-53
2021/10/14 03:42:54;;;;;;;3.72;2.10;;;;;;;;;;5035998;28;20082;-53
2021/10/14 03:45:20;;;;;;;3.72;2.15;;;;;;;;;;5035135;28;20025;-53
2021/10/14 03:47:46;;;;;;;4.72;2.95;;;;;;;;;;5036110;28;20025;-53
2021/10/14 03:50:13;;;;;;;5.60;2.60;;;;;;;;;;5036105;28;20080;-53
2021/10/14 03:52:39;;;;;;;5.43;2.90;;;;;;;;;;5035425;28;20180;-53
2021/10/14 03:55:05;;;;;;;5.03;2.58;;;;;;;;;;5034774;28;20462;-53
2021/10/14 03:57:31;;;;;;;5.50;2.30;;;;;;;;;;5035675;28;20044;-53
2021/10/14 03:59:57;;;;;;;5.00;2.67;;;;;;;;;;5035545;28;20038;-53
2021/10/14 04:02:23;;;;;;;4.30;2.25;;;;;;;;;;5034754;28;20108;-53
2021/10/14 04:04:49;;;;;;;6.05;2.63;;;;;;;;;;5035116;28;20167;-53
2021/10/14 04:07:15;;;;;;;4.05;2.15;;;;;;;;;;5035034;28;20033;-53
2021/10/14 04:09:41;;;;;;;4.18;2.30;;;;;;;;;;5035418;28;20025;-53
2021/10/14 04:12:07;;;;;;;6.35;2.55;;;;;;;;;;5035285;28;20030;-53
2021/10/14 04:14:33;;;;;;;5.15;2.90;;;;;;;;;;5034871;28;20030;-53
2021/10/14 04:16:59;;;;;;;5.80;2.78;;;;;;;;;;5035373;28;20121;-53
2021/10/14 04:19:26;;;;;;;3.33;2.00;;;;;;;;;;5035634;28;20024;-53
2021/10/14 04:21:51;;;;;;;3.90;2.13;;;;;;;;;;5035295;28;20037;-52
2021/10/14 04:24:21;;;;;;;5.50;2.47;;;;;;;;;;5034443;28;20025;-53
2021/10/14 04:26:47;;;;;;;5.30;2.42;;;;;;;;;;5034922;28;20030;-53
2021/10/14 04:29:13;;;;;;;12.48;2.42;;;;;;;;;;5034857;28;20432;-54
2021/10/14 04:31:39;;;;;;;7.05;2.40;;;;;;;;;;5034472;28;20131;-53
2021/10/14 04:34:08;;;;;;;5.97;2.78;;;;;;;;;;5034604;28;20029;-53
2021/10/14 04:36:35;;;;;;;5.13;2.35;;;;;;;;;;5034748;28;20087;-53
2021/10/14 04:39:01;;;;;;;5.30;2.20;;;;;;;;;;5035334;28;20040;-53
2021/10/14 04:41:27;;;;;;;5.93;3.17;;;;;;;;;;5034721;28;20018;-53
2021/10/14 04:43:53;;;;;;;10.27;2.67;;;;;;;;;;5034276;28;20045;-53
2021/10/14 04:46:20;;;;;;;9.77;2.55;;;;;;;;;;5034900;28;20028;-53
2021/10/14 04:48:46;;;;;;;5.47;2.35;;;;;;;;;;5034727;28;20352;-53
2021/10/14 04:51:12;;;;;;;7.93;3.10;;;;;;;;;;5034497;28;20026;-53
2021/10/14 04:53:38;;;;;;;5.13;2.33;;;;;;;;;;5033542;28;20367;-53
2021/10/14 04:56:04;;;;;;;5.10;2.47;;;;;;;;;;5034978;28;20022;-53
2021/10/14 04:58:31;;;;;;;5.43;2.70;;;;;;;;;;5034514;28;20463;-53
2021/10/14 05:00:57;;;;;;;6.18;2.78;;;;;;;;;;5034431;28;20351;-53
2021/10/14 05:03:23;;;;;;;3.08;2.10;;;;;;;;;;5033193;28;20032;-53
2021/10/14 05:05:49;;;;;;;7.57;2.92;;;;;;;;;;5034150;28;20026;-53
2021/10/14 05:08:15;;;;;;;4.18;2.42;;;;;;;;;;5034120;28;20406;-53
2021/10/14 05:10:41;;;;;;;7.35;2.70;;;;;;;;;;5034671;28;20029;-53
2021/10/14 05:13:07;;;;;;;4.05;2.28;;;;;;;;;;5034515;28;20411;-53
2021/10/14 05:15:34;;;;;;;10.00;2.92;;;;;;;;;;5033610;28;20487;-53
2021/10/14 05:18:00;;;;;;;6.47;3.10;;;;;;;;;;5033927;28;20041;-53
2021/10/14 05:20:26;;;;;;;5.20;3.08;;;;;;;;;;5034222;28;20036;-53
2021/10/14 05:22:52;;;;;;;11.35;4.50;;;;;;;;;;5033772;28;20026;-53
2021/10/14 05:25:18;;;;;;;15.05;3.42;;;;;;;;;;5033221;28;20439;-53
2021/10/14 05:27:44;;;;;;;5.10;2.22;;;;;;;;;;5034165;28;20049;-53
2021/10/14 05:30:10;;;;;;;5.82;2.80;;;;;;;;;;5034038;28;20025;-53
2021/10/14 05:32:36;;;;;;;13.35;2.83;;;;;;;;;;5033747;28;20032;-53
2021/10/14 05:35:03;;;;;;;5.63;2.28;;;;;;;;;;5033444;28;20025;-53
2021/10/14 05:37:29;;;;;;;5.32;2.50;;;;;;;;;;5033917;28;20057;-53
2021/10/14 05:39:57;;;;;;;5.93;2.42;;;;;;;;;;5033774;28;20388;-53
2021/10/14 05:42:23;;;;;;;2.60;1.98;;;;;;;;;;5033879;28;20067;-53
2021/10/14 05:44:49;;;;;;;3.95;2.30;;;;;;;;;;5032224;28;20064;-53
2021/10/14 05:47:15;;;;;;;4.00;2.40;;;;;;;;;;5032274;28;20034;-53
2021/10/14 05:49:41;;;;;;;6.45;2.28;;;;;;;;;;5033601;28;20447;-53
2021/10/14 05:52:07;;;;;;;8.57;2.67;;;;;;;;;;5033750;28;20022;-53
2021/10/14 05:54:33;;;;;;;5.13;2.67;;;;;;;;;;5032300;28;20040;-53
2021/10/14 05:56:59;;;;;;;7.55;2.67;;;;;;;;;;5033626;28;20037;-52
2021/10/14 05:59:25;;;;;;;11.20;3.13;;;;;;;;;;5033288;28;20040;-53
2021/10/14 06:01:51;;;;;;;6.28;2.58;;;;;;;;;;5032139;28;20436;-53
2021/10/14 06:04:17;;;;;;;6.53;2.95;;;;;;;;;;5032490;28;20024;-53
2021/10/14 06:06:44;;;;;;;8.85;3.08;;;;;;;;;;5033692;28;20025;-52
2021/10/14 06:09:10;;;;;;;7.93;3.25;;;;;;;;;;5033421;28;20112;-53
2021/10/14 06:11:36;;;;;;;5.25;2.67;;;;;;;;;;5033141;28;20363;-54
2021/10/14 06:14:01;;;;;;;8.57;3.08;;;;;;;;;;5032417;28;20030;-53
2021/10/14 06:16:27;;;;;;;15.13;3.40;;;;;;;;;;5033084;28;20139;-53
2021/10/14 06:18:54;;;;;;;8.45;3.20;;;;;;;;;;5033229;28;20029;-53
2021/10/14 06:21:19;;;;;;;8.30;3.72;;;;;;;;;;5033270;28;20025;-53
2021/10/14 06:23:46;;;;;;;11.82;4.45;;;;;;;;;;5032103;28;20164;-53
2021/10/14 06:26:12;;;;;;;14.88;5.00;;;;;;;;;;5032360;28;20432;-53
2021/10/14 06:28:38;;;;;;;14.50;4.68;;;;;;;;;;5033108;28;20030;-53
2021/10/14 06:31:04;;;;;;;11.77;4.28;;;;;;;;;;5032969;28;20056;-53
2021/10/14 06:33:30;;;;;;;10.05;4.10;;;;;;;;;;5032353;28;20450;-53
2021/10/14 06:35:56;;;;;;;13.68;4.78;;;;;;;;;;5032540;28;20018;-53
2021/10/14 06:38:22;;;;;;;9.32;4.63;;;;;;;;;;5033343;28;20072;-53
2021/10/14 06:40:48;;;;;;;7.57;4.00;;;;;;;;;;5032670;28;20041;-53
2021/10/14 06:43:15;;;;;;;11.05;4.40;;;;;;;;;;5032823;28;20052;-53
2021/10/14 06:45:41;;;;;;;6.80;3.45;;;;;;;;;;5032283;28;20032;-53
2021/10/14 06:48:07;;;;;;;8.60;3.42;;;;;;;;;;5032651;28;20061;-53
2021/10/14 06:50:33;;;;;;;9.73;3.47;;;;;;;;;;5033094;28;20056;-53
2021/10/14 06:53:00;;;;;;;6.82;3.30;;;;;;;;;;5032622;28;20357;-53
2021/10/14 06:55:26;;;;;;;6.15;2.90;;;;;;;;;;5034286;28;20108;-53
2021/10/14 06:57:52;;;;;;;6.15;3.20;;;;;;;;;;5036801;28;20042;-53
2021/10/14 07:00:22;;;;;;;4.43;3.13;;;;;;;;;;5036468;28;20060;-53
2021/10/14 07:02:48;;;;;;;5.35;3.22;;;;;;;;;;5035973;28;20265;-54
2021/10/14 07:05:14;;;;;;;7.75;2.80;;;;;;;;;;5036107;28;20060;-53
2021/10/14 07:07:41;;;;;;;6.70;3.78;;;;;;;;;;5036432;28;20021;-53
2021/10/14 07:10:08;;;;;;;12.05;3.65;;;;;;;;;;5036445;28;20474;-53
2021/10/14 07:12:36;;;;;;;7.68;2.90;;;;;;;;;;5036698;28;20100;-54
2021/10/14 07:15:03;;;;;;;10.35;3.50;;;;;;;;;;5035982;28;20110;-53
2021/10/14 07:17:29;;;;;;;7.93;2.97;;;;;;;;;;5036744;28;20033;-53
2021/10/14 07:19:55;;;;;;;8.88;3.60;;;;;;;;;;5036450;28;20036;-54
2021/10/14 07:22:21;;;;;;;10.65;3.40;;;;;;;;;;5035975;28;20414;-54
2021/10/14 07:24:47;;;;;;;8.30;3.53;;;;;;;;;;5035316;28;20443;-53
2021/10/14 07:27:13;;;;;;;8.45;3.53;;;;;;;;;;5036167;28;20447;-53
2021/10/14 07:29:39;;;;;;;10.32;3.35;;;;;;;;;;5036267;28;20047;-53
2021/10/14 07:32:06;;;;;;;7.05;3.33;;;;;;;;;;5036577;28;20037;-54
2021/10/14 07:34:33;;;;;;;8.27;4.25;;;;;;;;;;5035179;28;20067;-53
2021/10/14 07:36:59;;;;;;;10.55;4.18;;;;;;;;;;5035818;28;20428;-54
2021/10/14 07:39:25;;;;;;;11.40;3.97;;;;;;;;;;5035883;28;20061;-53
2021/10/14 07:41:51;;;;;;;11.85;5.00;;;;;;;;;;5036055;28;20025;-54
2021/10/14 07:44:17;;;;;;;5.45;3.47;;;;;;;;;;5034887;28;20421;-54
2021/10/14 07:46:44;;;;;;;5.47;2.78;;;;;;;;;;5035644;28;20332;-54
2021/10/14 07:49:10;;;;;;;19.27;6.53;;;;;;;;;;5035366;28;20022;-53
2021/10/14 07:51:36;;;;;;;69.03;13.45;;;;;;;;;;5036090;28;20029;-53
2021/10/14 07:54:05;;;;;;;17.13;5.40;;;;;;;;;;5035196;28;20021;-53
2021/10/14 07:56:31;;;;;;;15.68;4.68;;;;;;;;;;5035980;28;20079;-53
2021/10/14 07:58:57;;;;;;;6.70;2.63;;;;;;;;;;5035689;28;20021;-53
2021/10/14 08:01:23;;;;;;;8.05;2.83;;;;;;;;;;5034021;28;20044;-54
2021/10/14 08:03:49;;;;;;;8.73;3.25;;;;;;;;;;5034513;28;20025;-53
2021/10/14 08:06:16;;;;;;;6.43;3.15;;;;;;;;;;5034759;28;20163;-53
2021/10/14 08:08:42;;;;;;;8.25;3.47;;;;;;;;;;5035780;28;20036;-53
2021/10/14 08:11:08;;;;;;;4.70;2.47;;;;;;;;;;5035446;28;20021;-53
2021/10/14 08:13:35;;;;;;;7.95;3.30;;;;;;;;;;5034988;28;20394;-54
2021/10/14 08:16:01;;;;;;;7.70;2.83;;;;;;;;;;5034884;28;20030;-54
2021/10/14 08:18:27;;;;;;;5.70;2.97;;;;;;;;;;5035805;28;20127;-53
2021/10/14 08:20:54;;;;;;;3.28;2.40;;;;;;;;;;5035145;28;20028;-53
2021/10/14 08:23:20;;;;;;;5.50;2.63;;;;;;;;;;5035393;28;20021;-53
2021/10/14 08:25:46;;;;;;;8.60;2.83;;;;;;;;;;5034191;28;20519;-53
2021/10/14 08:28:13;;;;;;;3.67;2.83;;;;;;;;;;5035154;28;20418;-53
2021/10/14 08:30:39;;;;;;;7.32;3.30;;;;;;;;;;5034514;28;20061;-54
2021/10/14 08:33:05;;;;;;;9.15;3.15;;;;;;;;;;5035403;28;20105;-54
2021/10/14 08:35:35;;;;;;;6.38;3.13;;;;;;;;;;5034300;28;20428;-54
2021/10/14 08:38:02;;;;;;;4.63;2.75;;;;;;;;;;5034989;28;20124;-54
2021/10/14 08:40:28;;;;;;;6.97;3.53;;;;;;;;;;5034972;28;20022;-54
2021/10/14 08:42:58;;;;;;;8.90;3.25;;;;;;;;;;5035159;28;20033;-53
2021/10/14 08:45:24;;;;;;;;;;;;;;;;;;5032829;28;20049;-54
2021/10/14 08:47:51;;;;;;;8.65;3.50;;;;;;;;;;5042212;28;19959;-54
2021/10/14 08:50:18;;;;;;;8.00;3.33;;;;;;;;;;5052411;28;20024;-54
2021/10/14 08:52:44;;;;;;;7.55;2.92;;;;;;;;;;5054693;28;20439;-54
2021/10/14 08:55:10;;;;;;;10.40;3.30;;;;;;;;;;5044211;28;20439;-54
2021/10/14 08:57:36;;;;;;;4.70;2.58;;;;;;;;;;5034482;28;20044;-54
2021/10/14 09:00:03;;;;;;;9.38;2.90;;;;;;;;;;5034354;28;20029;-54
2021/10/14 09:02:30;;;;;;;5.38;2.58;;;;;;;;;;5033419;28;20044;-54
2021/10/14 09:04:58;;;;;;;7.38;3.08;;;;;;;;;;5033801;28;20119;-53
2021/10/14 09:07:26;;;;;;;3.28;2.42;;;;;;;;;;5034743;28;20116;-53
2021/10/14 09:09:53;;;;;;;9.07;2.80;;;;;;;;;;5034054;28;20029;-53
2021/10/14 09:12:21;;;;;;;5.28;2.75;;;;;;;;;;5034754;28;20029;-54
2021/10/14 09:14:54;;;;;;;4.05;1.95;;;;;;;;;;5033467;28;20057;-54
2021/10/14 09:17:21;;;;;;;5.03;2.55;;;;;;;;;;5034385;28;20375;-53
2021/10/14 09:19:47;;;;;;;6.03;2.60;;;;;;;;;;5033944;28;20324;-54
2021/10/14 09:22:16;;;;;;;7.47;2.13;;;;;;;;;;5033660;28;20028;-53
2021/10/14 09:24:42;;;;;;;3.60;1.80;;;;;;;;;;5032929;28;20036;-53
2021/10/14 09:27:09;;;;;;;3.45;1.88;;;;;;;;;;5034416;28;20071;-53
2021/10/14 09:29:37;;;;;;;2.67;1.83;;;;;;;;;;5034031;28;20025;-53
2021/10/14 09:32:04;;;;;;;7.78;3.20;;;;;;;;;;5033962;28;20025;-53
2021/10/14 09:34:34;;;;;;;3.97;2.15;;;;;;;;;;5033140;28;20017;-54
2021/10/14 09:37:02;;;;;;;5.78;2.50;;;;;;;;;;5033771;28;20459;-53
2021/10/14 09:39:28;;;;;;;4.97;2.55;;;;;;;;;;5033987;28;20026;-54
2021/10/14 09:41:55;;;;;;;3.60;2.13;;;;;;;;;;5033832;28;20030;-53
2021/10/14 09:44:21;;;;;;;3.30;2.40;;;;;;;;;;5033113;28;20091;-53
2021/10/14 09:46:52;;;;;;;5.18;2.92;;;;;;;;;;5033279;28;20083;-54
2021/10/14 09:49:23;;;;;;;7.82;2.90;;;;;;;;;;5033395;28;20447;-53
2021/10/14 09:51:49;;;;;;;4.43;2.50;;;;;;;;;;5033641;28;20075;-53
2021/10/14 09:54:15;;;;;;;8.90;2.03;;;;;;;;;;5033098;28;20057;-53
2021/10/14 09:56:41;;;;;;;5.57;2.97;;;;;;;;;;5033292;28;20064;-54
2021/10/14 09:59:07;;;;;;;5.60;3.05;;;;;;;;;;5033503;28;20367;-54
2021/10/14 10:01:35;;;;;;;6.32;2.25;;;;;;;;;;5031074;28;20021;-54
2021/10/14 10:04:02;;;;;;;5.75;2.58;;;;;;;;;;5032944;28;20017;-54
2021/10/14 10:06:29;;;;;;;5.90;2.63;;;;;;;;;;5033577;28;20025;-54
2021/10/14 10:08:57;;;;;;;10.13;2.88;;;;;;;;;;5033533;28;20082;-53
2021/10/14 10:11:23;;;;;;;4.75;2.55;;;;;;;;;;5033220;28;20032;-53
2021/10/14 10:13:52;;;;;;;4.15;2.40;;;;;;;;;;5032079;28;20022;-53
2021/10/14 10:16:22;;;;;;;5.50;2.58;;;;;;;;;;5032823;28;20537;-53
2021/10/14 10:18:48;;;;;;;4.68;2.60;;;;;;;;;;5033476;28;20030;-54
2021/10/14 10:21:32;;;;;;;4.93;1.70;;;;;;;;;;5033068;28;20029;-53
2021/10/14 10:23:58;;;;;;;3.90;2.30;;;;;;;;;;5032592;28;20029;-53
2021/10/14 10:26:36;;;;;;;4.70;2.55;;;;;;;;;;5032365;28;20031;-53
2021/10/14 10:29:14;;;;;;;4.10;2.75;;;;;;;;;;5032558;28;20025;-53
2021/10/14 10:31:51;;;;;;;8.55;2.47;;;;;;;;;;5032882;28;20072;-53
2021/10/14 10:34:31;;;;;;;3.85;2.33;;;;;;;;;;5032663;28;20096;-54
2021/10/14 10:37:09;;;;;;;4.53;2.63;;;;;;;;;;5032342;28;20421;-54
2021/10/14 10:39:53;;;;;;;3.85;2.17;;;;;;;;;;5033145;28;20352;-53
2021/10/14 10:42:38;;;;;;;6.72;3.20;;;;;;;;;;5032808;28;20040;-54
2021/10/14 10:45:07;;;;;;;5.68;2.47;;;;;;;;;;5031938;28;20462;-53
2021/10/14 10:47:40;;;;;;;5.82;2.75;;;;;;;;;;5032488;28;20030;-53
2021/10/14 10:50:08;;;;;;;3.92;2.30;;;;;;;;;;5033278;28;20029;-54
2021/10/14 10:52:35;;;;;;;5.22;2.67;;;;;;;;;;5032642;28;20025;-53
2021/10/14 10:55:02;;;;;;;6.82;2.35;;;;;;;;;;5031895;28;20444;-53
2021/10/14 10:57:48;;;;;;;4.80;2.10;;;;;;;;;;5032518;28;20087;-54
2021/10/14 11:00:15;;;;;;;4.60;2.40;;;;;;;;;;5032643;28;20208;-54
2021/10/14 11:02:41;;;;;;;4.57;2.58;;;;;;;;;;5031143;28;20118;-54
2021/10/14 11:05:07;;;;;;;6.43;2.38;;;;;;;;;;5031937;28;20034;-53
2021/10/14 11:07:33;;;;;;;2.40;1.95;;;;;;;;;;5032580;28;20021;-54
2021/10/14 11:09:59;;;;;;;5.55;2.88;;;;;;;;;;5032379;28;20071;-53
2021/10/14 11:12:25;;;;;;;4.85;2.00;;;;;;;;;;5032738;28;20032;-53
2021/10/14 11:14:51;;;;;;;4.13;1.98;;;;;;;;;;5031715;28;20022;-54
2021/10/14 11:17:17;;;;;;;3.72;2.30;;;;;;;;;;5032285;28;20060;-54
2021/10/14 11:19:44;;;;;;;4.20;2.05;;;;;;;;;;5032589;28;20017;-53
2021/10/14 11:22:13;;;;;;;2.47;1.75;;;;;;;;;;5032438;28;20079;-53
2021/10/14 11:24:43;;;;;;;3.33;2.35;;;;;;;;;;5031682;28;20440;-54
2021/10/14 11:27:13;;;;;;;3.17;1.77;;;;;;;;;;5032522;28;20033;-53
2021/10/14 11:29:39;;;;;;;5.38;1.75;;;;;;;;;;5032303;28;20227;-54
2021/10/14 11:32:08;;;;;;;3.65;1.85;;;;;;;;;;5032599;28;20405;-53
2021/10/14 11:34:36;;;;;;;5.35;1.45;;;;;;;;;;5031362;28;20517;-53
2021/10/14 11:37:04;;;;;;;3.83;1.77;;;;;;;;;;5032349;28;20052;-53
2021/10/14 11:39:36;;;;;;;5.07;2.10;;;;;;;;;;5032542;28;20137;-54
2021/10/14 11:42:04;;;;;;;2.78;1.65;;;;;;;;;;5034072;28;20103;-54
2021/10/14 11:44:31;;;;;;;2.92;1.73;;;;;;;;;;5035308;28;20459;-53
2021/10/14 11:46:58;;;;;;;7.90;2.20;;;;;;;;;;5035818;28;20041;-53
2021/10/14 11:49:24;;;;;;;3.85;1.67;;;;;;;;;;5035685;28;20033;-54
2021/10/14 11:51:51;;;;;;;3.45;1.85;;;;;;;;;;5035865;28;20028;-54
2021/10/14 11:54:17;;;;;;;3.10;1.60;;;;;;;;;;5035037;28;20022;-53
2021/10/14 11:56:43;;;;;;;4.55;1.63;;;;;;;;;;5035249;28;20383;-53
2021/10/14 11:59:09;;;;;;;2.65;1.67;;;;;;;;;;5035945;28;20022;-54
2021/10/14 12:01:48;;;;;;;3.55;1.55;;;;;;;;;;5033932;28;20338;-54
2021/10/14 12:04:18;;;;;;;4.38;2.17;;;;;;;;;;5034593;28;20490;-54
2021/10/14 12:06:45;;;;;;;2.28;1.60;;;;;;;;;;5035446;28;20104;-53
2021/10/14 12:09:14;;;;;;;5.88;1.45;;;;;;;;;;5035685;28;20478;-54
2021/10/14 12:11:40;;;;;;;3.17;1.60;;;;;;;;;;5035181;28;20344;-53
2021/10/14 12:14:06;;;;;;;1.75;1.45;;;;;;;;;;5034819;28;20533;-54
2021/10/14 12:16:33;;;;;;;3.33;1.95;;;;;;;;;;5034909;28;20126;-53
2021/10/14 12:19:12;;;;;;;3.85;2.20;;;;;;;;;;5035171;28;20072;-54
2021/10/14 12:21:43;;;;;;;3.00;1.88;;;;;;;;;;5050708;28;20423;-54
2021/10/14 12:24:09;;;;;;;3.55;2.00;;;;;;;;;;5054751;28;20025;-53
2021/10/14 12:26:44;;;;;;;2.60;1.63;;;;;;;;;;5054796;28;20032;-54
2021/10/14 12:29:27;;;;;;;1.77;1.42;;;;;;;;;;5054926;28;20033;-54
2021/10/14 12:32:23;;;;;;;4.82;2.15;;;;;;;;;;5055113;28;20028;-53
2021/10/14 12:34:55;;;;;;;3.47;1.52;;;;;;;;;;5031597;28;20048;-54
2021/10/14 12:37:28;;;;;;;4.00;2.17;;;;;;;;;;5032357;28;20100;-53
2021/10/14 12:40:13;;;;;;;4.43;2.13;;;;;;;;;;5032751;28;20172;-53
2021/10/14 12:42:51;;;;;;;5.57;1.73;;;;;;;;;;5032271;28;20045;-54
2021/10/14 12:48:27;;;;;;;3.22;1.65;;;;;;;;;;5031972;28;20526;-53
2021/10/14 12:53:21;;;;;;;3.80;1.88;;;;;;;;;;5031529;28;20032;-54
2021/10/14 12:55:57;;;;;;;5.20;1.85;;;;;;;;;;5031611;28;20026;-53
2021/10/14 12:58:23;;;;;;;4.63;1.58;;;;;;;;;;5031793;28;20041;-53
2021/10/14 13:00:58;;;;;;;4.18;2.13;;;;;;;;;;5032273;28;20398;-53
2021/10/14 13:03:24;;;;;;;2.95;1.30;;;;;;;;;;5030108;28;20033;-53
2021/10/14 13:05:50;;;;;;;4.05;1.80;;;;;;;;;;5031370;28;20124;-54
2021/10/14 13:08:16;;;;;;;15.05;2.40;;;;;;;;;;5031966;28;20029;-54
2021/10/14 13:10:42;;;;;;;2.78;1.55;;;;;;;;;;5038436;28;20033;-54
2021/10/14 13:13:08;;;;;;;3.42;1.75;;;;;;;;;;5054295;28;20032;-53
2021/10/14 13:15:34;;;;;;;5.10;1.83;;;;;;;;;;5053340;28;20021;-53
2021/10/14 13:18:00;;;;;;;2.65;1.73;;;;;;;;;;5053783;28;20037;-54
2021/10/14 13:20:28;;;;;;;2.17;1.48;;;;;;;;;;5053601;28;20036;-53
2021/10/14 13:22:54;;;;;;;3.85;1.60;;;;;;;;;;5054335;28;20025;-54
2021/10/14 13:25:20;;;;;;;3.55;1.83;;;;;;;;;;5053459;28;20346;-53
2021/10/14 13:27:46;;;;;;;2.13;1.50;;;;;;;;;;5053954;28;20502;-54
2021/10/14 13:30:12;;;;;;;3.70;1.33;;;;;;;;;;5053606;28;20033;-54
2021/10/14 13:32:38;;;;;;;2.13;1.08;;;;;;;;;;5053576;28;20409;-54
2021/10/14 13:35:06;;;;;;;3.22;1.55;;;;;;;;;;5053165;28;20021;-53
2021/10/14 13:37:32;;;;;;;3.33;1.65;;;;;;;;;;5053969;28;20373;-54
2021/10/14 13:39:59;;;;;;;3.10;2.03;;;;;;;;;;5053949;28;20096;-54
2021/10/14 13:42:32;;;;;;;5.03;1.42;;;;;;;;;;5053602;28;20060;-54
2021/10/14 13:45:01;;;;;;;11.88;2.08;;;;;;;;;;5052847;28;20354;-54
2021/10/14 13:47:27;;;;;;;5.20;1.92;;;;;;;;;;5053976;28;20036;-53
2021/10/14 13:49:53;;;;;;;1.90;1.30;;;;;;;;;;5053500;28;20494;-53
2021/10/14 13:52:19;;;;;;;3.25;1.63;;;;;;;;;;5053568;28;20050;-54
2021/10/14 13:54:45;;;;;;;2.00;1.27;;;;;;;;;;5052479;28;20463;-53
2021/10/14 13:57:11;;;;;;;4.97;2.03;;;;;;;;;;5053352;28;20091;-54
2021/10/14 13:59:37;;;;;;;5.10;1.45;;;;;;;;;;5053273;28;20024;-54
2021/10/14 14:02:04;;;;;;;5.40;1.30;;;;;;;;;;5051449;28;20028;-53
2021/10/14 14:04:30;;;;;;;3.80;1.23;;;;;;;;;;5051986;28;20068;-53
2021/10/14 14:06:56;;;;;;;2.38;1.42;;;;;;;;;;5053089;28;20390;-54
2021/10/14 14:09:22;;;;;;;2.45;1.30;;;;;;;;;;5053253;28;20036;-54
2021/10/14 14:11:48;;;;;;;2.00;1.35;;;;;;;;;;5052957;28;20351;-54
2021/10/14 14:14:15;;;;;;;2.03;1.35;;;;;;;;;;5052649;28;20021;-54
2021/10/14 14:16:41;;;;;;;3.05;1.55;;;;;;;;;;5052961;28;20036;-53
2021/10/14 14:19:08;;;;;;;1.30;1.17;;;;;;;;;;5053256;28;20025;-54
2021/10/14 14:21:34;;;;;;;2.58;1.48;;;;;;;;;;5053088;28;20013;-53
2021/10/14 14:24:00;;;;;;;4.78;1.67;;;;;;;;;;5052107;28;20060;-54
2021/10/14 14:26:27;;;;;;;3.95;1.45;;;;;;;;;;5052695;28;20534;-54
2021/10/14 14:28:54;;;;;;;1.92;0.80;;;;;;;;;;5052594;28;20025;-54
2021/10/14 14:31:20;;;;;;;1.75;1.35;;;;;;;;;;5053055;28;20042;-54
2021/10/14 14:33:46;;;;;;;5.43;1.88;;;;;;;;;;5052155;28;20370;-54
2021/10/14 14:36:13;;;;;;;1.77;1.17;;;;;;;;;;5052627;28;20655;-53
2021/10/14 14:38:39;;;;;;;1.48;1.23;;;;;;;;;;5052617;28;20037;-54
2021/10/14 14:41:06;;;;;;;3.17;1.42;;;;;;;;;;5052688;28;20695;-53
2021/10/14 14:43:32;;;;;;;2.22;1.20;;;;;;;;;;5052149;28;20116;-54
2021/10/14 14:46:01;;;;;;;2.63;1.20;;;;;;;;;;5049787;28;20021;-54
2021/10/14 14:48:27;;;;;;;1.90;1.05;;;;;;;;;;5043968;28;20091;-54